TimeEST,TemperatureF,Dew PointF,Humidity,Sea Level PressureIn,VisibilityMPH,Wind Direction,Wind SpeedMPH,Gust SpeedMPH,PrecipitationIn,Events,Conditions,WindDirDegrees,DateUTC
1:54 AM,43.0,23.0,45,30.09,10.0,SE,5.8,-,N/A,,Overcast,140,2011-11-20 06:54:00
2:54 AM,42.1,25.0,51,30.06,10.0,SSE,5.8,-,N/A,,Partly Cloudy,160,2011-11-20 07:54:00
3:54 AM,43.0,26.1,51,30.04,10.0,Variable,3.5,-,N/A,,Mostly Cloudy,0,2011-11-20 08:54:00
4:54 AM,42.1,27.0,55,30.01,10.0,SSE,4.6,-,N/A,,Partly Cloudy,160,2011-11-20 09:54:00
5:54 AM,41.0,27.0,57,29.99,10.0,South,5.8,-,N/A,,Clear,170,2011-11-20 10:54:00
7:54 AM,46.0,28.0,50,29.95,10.0,SW,13.8,21.9,N/A,,Overcast,220,2011-11-20 12:54:00
8:54 AM,48.0,30.9,52,29.94,10.0,SW,12.7,20.7,0.00,,Mostly Cloudy,230,2011-11-20 13:54:00
9:54 AM,52.0,33.1,49,29.91,10.0,SW,12.7,28.8,N/A,,Partly Cloudy,220,2011-11-20 14:54:00
10:54 AM,54.0,35.1,49,29.90,10.0,SW,15.0,23.0,N/A,,Overcast,230,2011-11-20 15:54:00
11:54 AM,55.9,37.9,51,29.89,10.0,SW,11.5,24.2,N/A,,Scattered Clouds,230,2011-11-20 16:54:00
12:54 PM,57.0,39.0,51,29.88,10.0,SW,11.5,21.9,N/A,,Clear,230,2011-11-20 17:54:00
1:54 PM,57.9,41.0,53,29.88,10.0,SW,10.4,16.1,N/A,,Mostly Cloudy,220,2011-11-20 18:54:00
2:54 PM,59.0,42.1,53,29.88,10.0,SW,9.2,-,N/A,,Scattered Clouds,230,2011-11-20 19:54:00
3:54 PM,59.0,43.0,55,29.91,10.0,Variable,5.8,-,N/A,,Overcast,0,2011-11-20 20:54:00
4:54 PM,57.9,44.1,60,29.95,10.0,NW,3.5,-,N/A,,Overcast,320,2011-11-20 21:54:00
6:54 PM,55.0,43.0,64,29.98,10.0,NW,5.8,-,N/A,,Partly Cloudy,320,2011-11-20 23:54:00
7:54 PM,53.1,41.0,64,30.01,10.0,North,4.6,-,N/A,,Scattered Clouds,360,2011-11-21 00:54:00
8:54 PM,51.1,39.0,63,30.03,10.0,Variable,4.6,-,N/A,,Overcast,0,2011-11-21 01:54:00
9:54 PM,48.9,34.0,56,30.06,10.0,WNW,6.9,-,N/A,,Clear,300,2011-11-21 02:54:00
10:54 PM,48.0,34.0,58,30.08,10.0,Variable,4.6,-,N/A,,Scattered Clouds,0,2011-11-21 03:54:00
11:54 PM,46.9,33.1,59,30.10,10.0,NW,8.1,-,N/A,,Partly Cloudy,310,2011-11-21 04:54:00